createdAt,value
2017-09-15T00:00:50.668Z,100229.80
2017-09-15T00:03:18.153Z,100226.52
2017-09-15T00:05:45.613Z,100228.58
2017-09-15T00:08:13.595Z,100230.98
2017-09-15T00:10:41.054Z,100228.73
2017-09-15T00:13:08.504Z,100229.92
2017-09-15T00:15:35.968Z,100231.25
2017-09-15T00:18:03.425Z,100228.38
2017-09-15T00:20:31.045Z,100224.86
2017-09-15T00:22:58.559Z,100228.42
2017-09-15T00:25:26.122Z,100225.89
2017-09-15T00:27:53.582Z,100228.62
2017-09-15T00:30:21.077Z,100226.09
2017-09-15T00:32:48.594Z,100224.18
2017-09-15T00:35:16.152Z,100221.39
2017-09-15T00:37:43.605Z,100217.77
2017-09-15T00:40:11.075Z,100212.81
2017-09-15T00:42:38.551Z,100207.35
2017-09-15T00:45:06.029Z,100209.59
2017-09-15T00:47:33.504Z,100211.91
2017-09-15T00:50:00.950Z,100205.25
2017-09-15T00:52:28.424Z,100211.89
2017-09-15T00:54:55.875Z,100207.42
2017-09-15T00:57:23.369Z,100209.13
2017-09-15T00:59:50.815Z,100213.96
2017-09-15T01:02:18.303Z,100212.66
2017-09-15T01:04:45.761Z,100214.89
2017-09-15T01:07:13.618Z,100216.23
2017-09-15T01:09:41.063Z,100222.24
2017-09-15T01:12:08.540Z,100215.80
2017-09-15T01:14:36.019Z,100221.91
2017-09-15T01:17:03.488Z,100227.39
2017-09-15T01:19:30.940Z,100223.39
2017-09-15T01:21:58.412Z,100228.78
2017-09-15T01:24:25.859Z,100220.50
2017-09-15T01:26:53.341Z,100226.11
2017-09-15T01:29:20.797Z,100222.83
2017-09-15T01:31:48.388Z,100219.73
2017-09-15T01:34:15.848Z,100222.88
2017-09-15T01:36:43.296Z,100222.33
2017-09-15T01:39:10.845Z,100224.50
2017-09-15T01:41:38.313Z,100224.31
2017-09-15T01:44:05.779Z,100230.58
2017-09-15T01:46:33.250Z,100229.11
2017-09-15T01:49:00.762Z,100231.83
2017-09-15T01:51:28.207Z,100240.45
2017-09-15T01:53:55.934Z,100236.55
2017-09-15T01:56:23.490Z,100240.72
2017-09-15T01:58:50.960Z,100239.66
2017-09-15T02:01:18.408Z,100241.89
2017-09-15T02:03:45.929Z,100246.34
2017-09-15T02:06:13.475Z,100245.80
2017-09-15T02:08:40.931Z,100251.94
2017-09-15T02:11:08.419Z,100245.39
2017-09-15T02:13:35.871Z,100247.33
2017-09-15T02:16:03.456Z,100250.63
2017-09-15T02:18:30.927Z,100244.83
2017-09-15T02:20:58.400Z,100244.72
2017-09-15T02:23:31.725Z,100247.20
2017-09-15T02:25:59.217Z,100251.40
2017-09-15T02:28:27.089Z,100255.45
2017-09-15T02:30:54.583Z,100255.52
2017-09-15T02:33:22.027Z,100256.88
2017-09-15T02:35:49.506Z,100254.70
2017-09-15T02:38:17.064Z,100255.06
2017-09-15T02:40:44.576Z,100257.63
2017-09-15T02:43:12.136Z,100250.83
2017-09-15T02:45:39.623Z,100253.03
2017-09-15T02:48:07.084Z,100248.55
2017-09-15T02:50:34.665Z,100255.09
2017-09-15T02:53:02.128Z,100245.88
2017-09-15T02:55:29.605Z,100249.72
2017-09-15T02:57:57.052Z,100241.80
2017-09-15T03:00:24.590Z,100254.02
2017-09-15T03:02:52.059Z,100253.18
2017-09-15T03:05:19.511Z,100252.50
2017-09-15T03:07:47.055Z,100245.14
2017-09-15T03:10:14.502Z,100245.70
2017-09-15T03:12:42.082Z,100244.88
2017-09-15T03:15:09.529Z,100245.46
2017-09-15T03:17:36.995Z,100248.53
2017-09-15T03:20:04.444Z,100240.19
2017-09-15T03:22:31.947Z,100238.81
2017-09-15T03:24:59.394Z,100236.25
2017-09-15T03:27:27.183Z,100237.16
2017-09-15T03:29:54.635Z,100240.48
2017-09-15T03:32:22.137Z,100243.31
2017-09-15T03:34:49.587Z,100237.25
2017-09-15T03:37:17.044Z,100235.66
2017-09-15T03:39:44.510Z,100236.19
2017-09-15T03:42:11.993Z,100236.05
2017-09-15T03:44:39.465Z,100235.53
2017-09-15T03:47:06.917Z,100235.32
2017-09-15T03:49:34.400Z,100229.86
2017-09-15T03:52:01.850Z,100233.27
2017-09-15T03:54:29.328Z,100221.94
2017-09-15T03:56:56.784Z,100221.75
2017-09-15T03:59:24.279Z,100226.72
2017-09-15T04:01:51.733Z,100221.80
2017-09-15T04:04:19.300Z,100225.11
2017-09-15T04:06:46.768Z,100222.81
2017-09-15T04:09:14.214Z,100231.77
2017-09-15T04:11:41.743Z,100231.30
2017-09-15T04:14:09.349Z,100219.95
2017-09-15T04:16:36.829Z,100224.83
2017-09-15T04:19:04.275Z,100226.70
2017-09-15T04:21:31.783Z,100231.81
2017-09-15T04:23:59.264Z,100232.83
2017-09-15T04:26:26.737Z,100238.84
2017-09-15T04:28:54.193Z,100239.25
2017-09-15T04:31:21.684Z,100240.55
2017-09-15T04:33:49.130Z,100230.64
2017-09-15T04:36:16.604Z,100234.23
2017-09-15T04:38:44.052Z,100233.45
2017-09-15T04:41:11.521Z,100236.97
2017-09-15T04:43:38.968Z,100232.91
2017-09-15T04:46:06.457Z,100225.29
2017-09-15T04:48:34.218Z,100234.85
2017-09-15T04:51:01.688Z,100227.84
2017-09-15T04:53:29.158Z,100222.33
2017-09-15T04:55:56.627Z,100226.84
2017-09-15T04:58:24.087Z,100228.35
2017-09-15T05:00:51.565Z,100226.81
2017-09-15T05:03:19.028Z,100222.71
2017-09-15T05:05:46.504Z,100223.27
2017-09-15T05:08:13.971Z,100227.07
2017-09-15T05:10:41.451Z,100227.42
2017-09-15T05:13:08.978Z,100223.47
2017-09-15T05:15:36.455Z,100222.19
2017-09-15T05:18:03.919Z,100223.98
2017-09-15T05:20:31.403Z,100221.59
2017-09-15T05:22:58.876Z,100228.82
2017-09-15T05:25:26.322Z,100228.84
2017-09-15T05:27:53.793Z,100235.92
2017-09-15T05:30:21.253Z,100224.25
2017-09-15T05:32:48.833Z,100231.30
2017-09-15T05:35:16.570Z,100226.99
2017-09-15T05:37:44.048Z,100218.80
2017-09-15T05:40:11.496Z,100216.22
2017-09-15T05:42:38.983Z,100220.48
2017-09-15T05:45:06.431Z,100223.93
2017-09-15T05:47:33.902Z,100220.87
2017-09-15T05:50:01.437Z,100216.16
2017-09-15T05:52:28.919Z,100211.73
2017-09-15T05:54:56.505Z,100211.78
2017-09-15T05:57:24.015Z,100214.20
2017-09-15T05:59:51.501Z,100207.56
2017-09-15T06:02:18.961Z,100205.72
2017-09-15T06:04:46.444Z,100209.31
2017-09-15T06:07:13.895Z,100217.99
2017-09-15T06:09:41.371Z,100210.37
2017-09-15T06:12:08.871Z,100214.93
2017-09-15T06:14:36.329Z,100214.34
2017-09-15T06:17:03.855Z,100213.16
2017-09-15T06:19:31.559Z,100217.13
2017-09-15T06:22:01.729Z,100216.28
2017-09-15T06:24:29.359Z,100212.84
2017-09-15T06:26:56.823Z,100211.59
2017-09-15T06:29:24.283Z,100208.55
2017-09-15T06:31:51.744Z,100208.34
2017-09-15T06:34:19.183Z,100215.03
2017-09-15T06:36:46.662Z,100219.19
2017-09-15T06:39:14.112Z,100212.22
2017-09-15T06:41:41.587Z,100206.58
2017-09-15T06:44:09.040Z,100211.02
2017-09-15T06:46:36.504Z,100204.98
2017-09-15T06:49:03.972Z,100210.66
2017-09-15T06:51:31.449Z,100207.03
2017-09-15T06:53:58.924Z,100203.16
2017-09-15T06:56:26.445Z,100203.63
2017-09-15T06:58:53.931Z,100201.83
2017-09-15T07:01:21.379Z,100201.14
2017-09-15T07:03:48.859Z,100203.48
2017-09-15T07:06:16.304Z,100203.16
2017-09-15T07:08:43.836Z,100193.79
2017-09-15T07:11:11.284Z,100195.00
2017-09-15T07:13:38.857Z,100191.95
2017-09-15T07:16:06.320Z,100190.58
2017-09-15T07:18:33.792Z,100187.91
2017-09-15T07:21:02.090Z,100192.31
2017-09-15T07:23:29.541Z,100176.89
2017-09-15T07:25:57.020Z,100186.65
2017-09-15T07:28:24.505Z,100176.13
2017-09-15T07:30:51.992Z,100188.12
2017-09-15T07:33:19.450Z,100189.71
2017-09-15T07:35:46.946Z,100194.77
2017-09-15T07:38:14.391Z,100202.43
2017-09-15T07:40:41.893Z,100210.55
2017-09-15T07:43:09.362Z,100216.11
2017-09-15T07:45:36.857Z,100222.86
2017-09-15T07:48:04.310Z,100218.00
2017-09-15T07:50:31.777Z,100215.55
2017-09-15T07:52:59.254Z,100216.84
2017-09-15T07:55:26.899Z,100214.84
2017-09-15T07:57:54.380Z,100213.73
2017-09-15T08:00:21.862Z,100212.98
2017-09-15T08:02:49.336Z,100210.95
2017-09-15T08:05:16.797Z,100204.06
2017-09-15T08:07:44.269Z,100204.68
2017-09-15T08:10:11.777Z,100201.09
2017-09-15T08:12:39.247Z,100201.23
2017-09-15T08:15:06.700Z,100201.81
2017-09-15T08:17:34.250Z,100203.69
2017-09-15T08:20:01.729Z,100203.56
2017-09-15T08:22:29.211Z,100208.06
2017-09-15T08:24:56.675Z,100204.09
2017-09-15T08:27:24.127Z,100212.77
2017-09-15T08:29:51.619Z,100206.58
2017-09-15T08:32:19.067Z,100209.87
2017-09-15T08:34:46.533Z,100204.99
2017-09-15T08:37:13.984Z,100207.88
2017-09-15T08:39:41.455Z,100207.45
2017-09-15T08:42:09.063Z,100207.52
2017-09-15T08:44:36.618Z,100200.66
2017-09-15T08:47:04.092Z,100202.38
2017-09-15T08:49:31.595Z,100204.19
2017-09-15T08:51:59.043Z,100200.73
2017-09-15T08:54:26.492Z,100190.81
2017-09-15T08:56:54.064Z,100195.37
2017-09-15T08:59:21.511Z,100193.97
2017-09-15T09:01:48.985Z,100189.06
2017-09-15T09:04:16.464Z,100184.52
2017-09-15T09:06:43.945Z,100189.97
2017-09-15T09:09:11.396Z,100188.17
2017-09-15T09:11:38.900Z,100190.21
2017-09-15T09:14:06.462Z,100189.61
2017-09-15T09:16:34.022Z,100194.08
2017-09-15T09:19:01.479Z,100188.39
2017-09-15T09:21:28.957Z,100189.87
2017-09-15T09:23:56.403Z,100200.89
2017-09-15T09:26:23.956Z,100194.45
2017-09-15T09:28:51.436Z,100203.85
2017-09-15T09:31:18.899Z,100199.64
2017-09-15T09:33:46.354Z,100197.98
2017-09-15T09:36:13.806Z,100197.08
2017-09-15T09:38:41.291Z,100205.54
2017-09-15T09:41:08.740Z,100203.13
2017-09-15T09:43:36.222Z,100197.79
2017-09-15T09:46:03.710Z,100193.16
2017-09-15T09:48:31.263Z,100194.46
2017-09-15T09:50:58.707Z,100190.32
2017-09-15T09:53:26.185Z,100189.94
2017-09-15T09:55:53.627Z,100196.64
2017-09-15T09:58:21.091Z,100189.38
2017-09-15T10:00:48.575Z,100182.11
2017-09-15T10:03:16.063Z,100178.77
2017-09-15T10:05:43.573Z,100173.05
2017-09-15T10:08:11.047Z,100176.09
2017-09-15T10:10:38.501Z,100172.36
2017-09-15T10:13:05.963Z,100171.45
2017-09-15T10:15:34.815Z,100171.16
2017-09-15T10:18:02.320Z,100166.52
2017-09-15T10:20:29.768Z,100166.23
2017-09-15T10:22:57.293Z,100170.25
2017-09-15T10:25:24.740Z,100172.94
2017-09-15T10:27:52.299Z,100172.09
2017-09-15T10:30:19.763Z,100181.59
2017-09-15T10:32:47.239Z,100169.88
2017-09-15T10:35:14.770Z,100176.89
2017-09-15T10:37:42.235Z,100175.53
2017-09-15T10:40:09.679Z,100176.36
2017-09-15T10:42:37.249Z,100171.55
2017-09-15T10:45:04.733Z,100161.36
2017-09-15T10:47:32.265Z,100158.23
2017-09-15T10:49:59.737Z,100158.75
2017-09-15T10:52:27.217Z,100163.27
2017-09-15T10:54:54.737Z,100164.55
2017-09-15T10:57:22.179Z,100164.06
2017-09-15T10:59:55.111Z,100163.58
2017-09-15T11:02:22.602Z,100157.28
2017-09-15T11:04:50.075Z,100164.14
2017-09-15T11:07:17.533Z,100180.03
2017-09-15T11:09:45.005Z,100175.30
2017-09-15T11:12:12.575Z,100180.80
2017-09-15T11:14:40.115Z,100181.27
2017-09-15T11:17:07.593Z,100173.16
2017-09-15T11:19:35.056Z,100177.06
2017-09-15T11:22:02.601Z,100174.08
2017-09-15T11:24:30.111Z,100166.34
2017-09-15T11:26:57.624Z,100147.00
2017-09-15T11:29:25.196Z,100141.53
2017-09-15T11:31:52.652Z,100139.00
2017-09-15T11:34:20.239Z,100143.53
2017-09-15T11:36:48.599Z,100145.02
2017-09-15T11:39:16.102Z,100148.58
2017-09-15T11:41:43.554Z,100136.42
2017-09-15T11:44:11.040Z,100132.05
2017-09-15T11:46:38.502Z,100132.36
2017-09-15T11:49:06.049Z,100125.88
2017-09-15T11:51:33.515Z,100117.53
2017-09-15T11:54:00.971Z,100125.52
2017-09-15T11:56:28.457Z,100114.67
2017-09-15T11:58:55.914Z,100115.85
2017-09-15T12:01:23.405Z,100113.04
2017-09-15T12:03:50.862Z,100105.89
2017-09-15T12:06:18.331Z,100100.47
2017-09-15T12:08:45.802Z,100094.87
2017-09-15T12:11:13.358Z,100091.81
2017-09-15T12:13:40.803Z,100087.26
2017-09-15T12:16:08.272Z,100095.60
2017-09-15T12:18:35.760Z,100098.22
2017-09-15T12:21:03.240Z,100084.95
2017-09-15T12:23:31.123Z,100085.91
2017-09-15T12:25:58.614Z,100084.41
2017-09-15T12:28:26.075Z,100089.39
2017-09-15T12:30:53.627Z,100085.19
2017-09-15T12:33:21.071Z,100083.69
2017-09-15T12:35:48.792Z,100079.98
2017-09-15T12:38:16.243Z,100081.20
2017-09-15T12:40:43.762Z,100075.45
2017-09-15T12:43:11.214Z,100078.86
2017-09-15T12:45:38.702Z,100076.50
2017-09-15T12:48:06.159Z,100076.48
2017-09-15T12:50:33.638Z,100069.39
2017-09-15T12:53:01.153Z,100066.31
2017-09-15T12:55:28.647Z,100065.91
2017-09-15T12:57:56.161Z,100062.50
2017-09-15T13:00:23.635Z,100052.91
2017-09-15T13:02:51.096Z,100049.72
2017-09-15T13:05:18.543Z,100045.69
2017-09-15T13:07:46.103Z,100046.63
2017-09-15T13:10:13.547Z,100039.37
2017-09-15T13:12:41.049Z,100043.28
2017-09-15T13:15:08.496Z,100041.23
2017-09-15T13:17:35.981Z,100037.33
2017-09-15T13:20:03.424Z,100037.22
2017-09-15T13:22:31.187Z,100032.45
2017-09-15T13:24:58.636Z,100036.46
2017-09-15T13:27:26.132Z,100032.67
2017-09-15T13:29:53.608Z,100034.91
2017-09-15T13:32:21.105Z,100040.39
2017-09-15T13:34:48.591Z,100040.09
2017-09-15T13:37:16.080Z,100030.44
2017-09-15T13:39:43.524Z,100034.66
2017-09-15T13:42:10.992Z,100036.48
2017-09-15T13:44:38.551Z,100024.29
2017-09-15T13:47:06.019Z,100025.42
2017-09-15T13:49:33.566Z,100015.31
2017-09-15T13:52:01.138Z,100017.04
2017-09-15T13:54:28.591Z,100017.41
2017-09-15T13:56:56.067Z,100019.48
2017-09-15T13:59:23.525Z,100009.55
2017-09-15T14:01:51.019Z,100005.41
2017-09-15T14:04:18.459Z,99998.51
2017-09-15T14:06:45.952Z,99997.84
2017-09-15T14:09:13.759Z,99997.75
2017-09-15T14:11:41.316Z,99994.05
2017-09-15T14:14:08.785Z,99985.88
2017-09-15T14:16:36.315Z,99994.47
2017-09-15T14:19:03.773Z,99988.09
2017-09-15T14:21:31.314Z,99982.82
2017-09-15T14:23:58.793Z,99982.86
2017-09-15T14:26:26.231Z,99983.33
2017-09-15T14:28:53.705Z,99976.89
2017-09-15T14:31:21.243Z,99977.06
2017-09-15T14:33:48.707Z,99977.39
2017-09-15T14:36:16.162Z,99977.23
2017-09-15T14:38:43.627Z,99973.14
2017-09-15T14:41:11.075Z,99967.76
2017-09-15T14:43:38.539Z,99969.00
2017-09-15T14:46:06.032Z,99959.36
2017-09-15T14:48:33.499Z,99965.59
2017-09-15T14:51:00.987Z,99971.88
2017-09-15T14:53:28.457Z,99972.00
2017-09-15T14:55:56.012Z,99968.17
2017-09-15T14:58:23.479Z,99968.16
2017-09-15T15:00:50.930Z,99973.59
2017-09-15T15:03:18.425Z,99970.11
2017-09-15T15:05:45.873Z,99969.81
2017-09-15T15:08:13.546Z,99966.12
2017-09-15T15:10:40.987Z,99968.34
2017-09-15T15:13:08.515Z,99965.92
2017-09-15T15:15:35.989Z,99958.84
2017-09-15T15:18:03.463Z,99955.59
2017-09-15T15:20:30.907Z,99961.16
2017-09-15T15:22:58.348Z,99962.66
2017-09-15T15:25:25.936Z,99976.95
2017-09-15T15:27:53.383Z,99966.50
2017-09-15T15:30:20.844Z,99966.80
2017-09-15T15:32:48.304Z,99961.47
2017-09-15T15:35:15.807Z,99961.47
2017-09-15T15:37:43.275Z,99959.05
2017-09-15T15:40:10.854Z,99956.13
2017-09-15T15:42:38.305Z,99957.80
2017-09-15T15:45:05.781Z,99963.08
2017-09-15T15:47:33.231Z,99957.47
2017-09-15T15:50:00.699Z,99961.17
2017-09-15T15:52:28.144Z,99966.30
2017-09-15T15:54:55.688Z,99968.75
2017-09-15T15:57:23.132Z,99965.20
2017-09-15T15:59:50.601Z,99964.09
2017-09-15T16:02:18.038Z,99958.33
2017-09-15T16:04:45.514Z,99961.14
2017-09-15T16:07:13.058Z,99967.56
2017-09-15T16:09:40.627Z,99966.11
2017-09-15T16:12:08.076Z,99969.70
2017-09-15T16:14:35.545Z,99960.25
2017-09-15T16:17:03.017Z,99959.49
2017-09-15T16:19:30.460Z,99959.22
2017-09-15T16:21:57.923Z,99965.78
2017-09-15T16:24:25.370Z,99968.00
2017-09-15T16:26:52.845Z,99973.16
2017-09-15T16:29:20.301Z,99973.95
2017-09-15T16:31:47.788Z,99972.33
2017-09-15T16:34:15.232Z,99972.63
2017-09-15T16:36:42.707Z,99975.86
2017-09-15T16:39:15.762Z,99977.57
2017-09-15T16:41:48.867Z,99980.94
2017-09-15T16:44:21.867Z,99976.23
2017-09-15T16:46:54.802Z,99974.85
2017-09-15T16:49:27.790Z,99985.39
2017-09-15T16:51:55.260Z,99979.31
2017-09-15T16:54:22.700Z,99978.66
2017-09-15T16:56:50.159Z,99977.17
2017-09-15T16:59:17.614Z,99985.45
2017-09-15T17:01:45.173Z,99987.30
2017-09-15T17:04:12.620Z,99985.80
2017-09-15T17:06:40.195Z,99988.88
2017-09-15T17:09:07.755Z,99989.27
2017-09-15T17:11:35.275Z,99991.20
2017-09-15T17:14:02.719Z,99994.83
2017-09-15T17:16:30.177Z,99996.99
2017-09-15T17:18:57.644Z,99988.41
2017-09-15T17:21:25.111Z,99993.43
2017-09-15T17:23:52.571Z,99989.47
2017-09-15T17:26:20.144Z,99994.13
2017-09-15T17:28:47.614Z,99996.41
2017-09-15T17:31:15.067Z,100003.50
2017-09-15T17:33:42.523Z,99998.11
2017-09-15T17:36:09.985Z,100001.38
2017-09-15T17:38:37.645Z,99998.65
2017-09-15T17:41:05.108Z,100008.70
2017-09-15T17:43:32.574Z,100005.38
2017-09-15T17:46:00.128Z,100004.77
2017-09-15T17:48:27.599Z,100008.44
2017-09-15T17:50:55.075Z,100009.08
2017-09-15T17:53:22.552Z,100016.74
2017-09-15T17:55:50.005Z,100018.43
2017-09-15T17:58:17.475Z,100018.26
2017-09-15T18:00:44.927Z,100016.35
2017-09-15T18:03:12.392Z,100018.44
2017-09-15T18:05:39.902Z,100019.75
2017-09-15T18:08:07.375Z,100027.78
2017-09-15T18:10:34.873Z,100030.55
2017-09-15T18:13:02.780Z,100039.17
2017-09-15T18:15:30.295Z,100041.55
2017-09-15T18:17:57.773Z,100045.45
2017-09-15T18:20:25.338Z,100051.44
2017-09-15T18:22:52.803Z,100054.22
2017-09-15T18:25:20.348Z,100060.97
2017-09-15T18:27:47.828Z,100060.73
2017-09-15T18:30:15.270Z,100067.37
2017-09-15T18:32:42.801Z,100068.31
2017-09-15T18:35:10.267Z,100078.17
2017-09-15T18:37:37.729Z,100076.06
2017-09-15T18:40:05.191Z,100077.41
2017-09-15T18:42:32.680Z,100079.78
2017-09-15T18:45:00.167Z,100084.23
2017-09-15T18:47:27.611Z,100082.61
2017-09-15T18:49:55.090Z,100079.97
2017-09-15T18:52:22.657Z,100083.42
2017-09-15T18:54:50.225Z,100085.52
2017-09-15T18:57:17.685Z,100091.95
2017-09-15T18:59:45.190Z,100085.31
2017-09-15T19:02:12.639Z,100089.95
2017-09-15T19:04:40.103Z,100090.65
2017-09-15T19:07:07.558Z,100087.55
2017-09-15T19:09:35.031Z,100091.96
2017-09-15T19:12:02.614Z,100088.55
2017-09-15T19:14:30.105Z,100090.52
2017-09-15T19:16:57.548Z,100089.97
2017-09-15T19:19:25.020Z,100087.39
2017-09-15T19:21:52.559Z,100095.46
2017-09-15T19:24:20.027Z,100090.22
2017-09-15T19:26:47.497Z,100089.32
2017-09-15T19:29:14.965Z,100094.06
2017-09-15T19:31:42.422Z,100098.41
2017-09-15T19:34:09.891Z,100092.41
2017-09-15T19:36:37.349Z,100089.62
2017-09-15T19:39:04.819Z,100079.08
2017-09-15T19:41:32.286Z,100079.68
2017-09-15T19:43:59.768Z,100077.55
2017-09-15T19:46:27.231Z,100076.86
2017-09-15T19:48:54.729Z,100073.96
2017-09-15T19:51:22.199Z,100074.59
2017-09-15T19:53:49.738Z,100072.70
2017-09-15T19:56:17.191Z,100070.27
2017-09-15T19:58:44.821Z,100067.66
2017-09-15T20:01:12.308Z,100060.12
2017-09-15T20:03:39.760Z,100062.30
2017-09-15T20:06:07.235Z,100065.52
2017-09-15T20:08:34.694Z,100061.10
2017-09-15T20:11:02.164Z,100065.33
2017-09-15T20:13:29.654Z,100064.94
2017-09-15T20:15:57.126Z,100062.72
2017-09-15T20:18:24.567Z,100062.16
2017-09-15T20:20:52.045Z,100054.70
2017-09-15T20:23:19.496Z,100062.23
2017-09-15T20:25:46.994Z,100056.31
2017-09-15T20:28:14.451Z,100053.13
2017-09-15T20:30:41.961Z,100050.58
2017-09-15T20:33:09.439Z,100058.20
2017-09-15T20:35:36.958Z,100058.13
2017-09-15T20:38:04.526Z,100061.13
2017-09-15T20:40:32.083Z,100059.75
2017-09-15T20:43:00.457Z,100065.41
2017-09-15T20:45:27.939Z,100065.66
2017-09-15T20:47:55.375Z,100071.40
2017-09-15T20:50:22.850Z,100068.42
2017-09-15T20:52:50.297Z,100073.70
2017-09-15T20:55:17.780Z,100074.71
2017-09-15T20:57:45.295Z,100076.66
2017-09-15T21:00:12.759Z,100073.66
2017-09-15T21:02:40.230Z,100077.78
2017-09-15T21:05:07.729Z,100073.56
2017-09-15T21:07:35.215Z,100079.91
2017-09-15T21:10:02.686Z,100082.94
2017-09-15T21:12:30.145Z,100081.97
2017-09-15T21:14:57.624Z,100085.52
2017-09-15T21:17:25.068Z,100079.30
2017-09-15T21:19:52.583Z,100082.31
2017-09-15T21:22:20.073Z,100084.15
2017-09-15T21:24:47.616Z,100085.81
2017-09-15T21:27:15.077Z,100084.50
2017-09-15T21:29:42.524Z,100088.06
2017-09-15T21:32:10.037Z,100089.27
2017-09-15T21:34:37.475Z,100088.67
2017-09-15T21:37:05.022Z,100091.52
2017-09-15T21:39:32.471Z,100087.90
2017-09-15T21:41:59.949Z,100080.52
2017-09-15T21:44:27.476Z,100079.29
2017-09-15T21:46:54.951Z,100080.20
2017-09-15T21:49:22.491Z,100075.09
2017-09-15T21:51:49.935Z,100072.34
2017-09-15T21:54:17.467Z,100069.45
2017-09-15T21:56:44.916Z,100073.70
2017-09-15T21:59:12.446Z,100078.98
2017-09-15T22:01:39.905Z,100083.25
2017-09-15T22:04:12.971Z,100078.50
2017-09-15T22:06:40.509Z,100084.11
2017-09-15T22:09:07.981Z,100078.03
2017-09-15T22:11:35.423Z,100077.23
2017-09-15T22:14:02.890Z,100080.73
2017-09-15T22:16:30.339Z,100083.59
2017-09-15T22:18:57.865Z,100081.85
2017-09-15T22:21:25.328Z,100085.38
2017-09-15T22:23:52.791Z,100074.50
2017-09-15T22:26:20.304Z,100078.27
2017-09-15T22:28:47.840Z,100076.30
2017-09-15T22:31:15.396Z,100072.09
2017-09-15T22:33:42.863Z,100076.92
2017-09-15T22:36:10.315Z,100078.28
2017-09-15T22:38:37.769Z,100076.56
2017-09-15T22:41:05.249Z,100079.80
2017-09-15T22:43:32.771Z,100085.59
2017-09-15T22:46:00.264Z,100085.66
2017-09-15T22:48:27.797Z,100083.53
2017-09-15T22:50:55.254Z,100083.69
2017-09-15T22:53:23.171Z,100081.22
2017-09-15T22:55:50.649Z,100075.64
2017-09-15T22:58:18.146Z,100078.75
2017-09-15T23:00:45.644Z,100072.32
2017-09-15T23:03:13.099Z,100064.25
2017-09-15T23:05:40.637Z,100056.89
2017-09-15T23:08:08.174Z,100062.30
2017-09-15T23:10:35.733Z,100064.42
2017-09-15T23:13:03.199Z,100058.20
2017-09-15T23:15:30.640Z,100060.41
2017-09-15T23:17:58.117Z,100058.55
2017-09-15T23:20:25.653Z,100059.79
2017-09-15T23:22:53.115Z,100059.69
2017-09-15T23:25:20.565Z,100061.84
2017-09-15T23:27:48.026Z,100061.51
2017-09-15T23:30:15.468Z,100057.89
2017-09-15T23:32:42.935Z,100056.67
2017-09-15T23:35:10.370Z,100057.89
2017-09-15T23:37:37.848Z,100057.34
2017-09-15T23:40:05.490Z,100063.63
2017-09-15T23:42:33.979Z,100056.01
2017-09-15T23:45:01.452Z,100061.90
2017-09-15T23:47:28.895Z,100058.14
2017-09-15T23:49:56.363Z,100064.66
2017-09-15T23:52:23.835Z,100057.17
2017-09-15T23:54:51.300Z,100064.71
2017-09-15T23:57:18.739Z,100066.98
2017-09-15T23:59:46.225Z,100073.50
